createdAt,value
2022-08-28T00:01:32.511Z,27.98
2022-08-28T00:06:34.519Z,27.96
2022-08-28T00:11:39.277Z,27.95
2022-08-28T00:16:41.750Z,27.94
2022-08-28T00:21:44.012Z,27.90
2022-08-28T00:27:04.856Z,27.92
2022-08-28T00:32:07.038Z,27.92
2022-08-28T00:37:09.025Z,28.00
2022-08-28T00:42:11.328Z,27.92
2022-08-28T00:47:13.504Z,27.94
2022-08-28T00:52:16.408Z,27.96
2022-08-28T00:57:37.762Z,27.82
2022-08-28T01:02:39.953Z,27.92
2022-08-28T01:07:42.279Z,27.84
2022-08-28T01:12:46.023Z,27.88
2022-08-28T01:17:51.653Z,27.80
2022-08-28T01:23:02.212Z,27.89
2022-08-28T01:28:08.362Z,27.87
2022-08-28T01:33:10.532Z,27.83
2022-08-28T01:38:20.240Z,27.85
2022-08-28T01:43:26.747Z,27.74
2022-08-28T01:48:30.613Z,27.83
2022-08-28T01:53:33.597Z,27.84
2022-08-28T01:58:38.239Z,27.84
2022-08-28T02:03:43.469Z,27.73
2022-08-28T02:08:46.847Z,27.78
2022-08-28T02:13:50.741Z,27.85
2022-08-28T02:18:53.489Z,27.83
2022-08-28T02:23:55.315Z,27.80
2022-08-28T02:28:57.190Z,27.72
2022-08-28T02:33:58.983Z,27.77
2022-08-28T02:39:00.750Z,27.70
2022-08-28T02:44:02.835Z,27.74
2022-08-28T02:49:04.635Z,27.72
2022-08-28T02:54:06.638Z,27.74
2022-08-28T02:59:08.804Z,27.72
2022-08-28T03:04:10.628Z,27.71
2022-08-28T03:09:12.682Z,27.74
2022-08-28T03:14:14.709Z,27.65
2022-08-28T03:19:16.731Z,27.65
2022-08-28T03:24:19.292Z,27.68
2022-08-28T03:29:21.146Z,27.68
2022-08-28T03:34:23.085Z,27.76
2022-08-28T03:39:25.089Z,27.58
2022-08-28T03:44:27.220Z,27.62
2022-08-28T03:49:29.646Z,27.60
2022-08-28T03:54:32.594Z,27.62
2022-08-28T03:59:36.053Z,27.55
2022-08-28T04:04:37.902Z,27.60
2022-08-28T04:09:39.988Z,27.57
2022-08-28T04:14:42.237Z,27.55
2022-08-28T04:19:45.382Z,27.59
2022-08-28T04:24:47.330Z,27.63
2022-08-28T04:29:49.471Z,27.72
2022-08-28T04:34:51.699Z,27.75
2022-08-28T04:39:53.733Z,27.75
2022-08-28T04:44:58.303Z,27.75
2022-08-28T04:50:00.719Z,27.77
2022-08-28T04:55:02.711Z,27.74
2022-08-28T05:00:07.429Z,27.69
2022-08-28T05:05:09.944Z,27.69
2022-08-28T05:10:12.094Z,27.64
2022-08-28T05:15:14.350Z,27.64
2022-08-28T05:20:16.368Z,27.56
2022-08-28T05:25:18.396Z,27.62
2022-08-28T05:30:21.168Z,27.55
2022-08-28T05:35:23.217Z,27.64
2022-08-28T05:40:25.419Z,27.57
2022-08-28T05:45:27.498Z,27.58
2022-08-28T05:50:29.588Z,27.55
2022-08-28T05:55:31.574Z,27.55
2022-08-28T06:00:33.583Z,27.55
2022-08-28T06:05:35.389Z,27.55
2022-08-28T06:10:44.327Z,27.50
2022-08-28T06:15:48.617Z,27.52
2022-08-28T06:20:50.751Z,27.47
2022-08-28T06:25:53.731Z,27.52
2022-08-28T06:31:18.524Z,27.45
2022-08-28T06:36:17.984Z,27.41
2022-08-28T06:41:20.058Z,27.37
2022-08-28T06:46:22.275Z,27.23
2022-08-28T06:51:25.219Z,27.37
2022-08-28T06:56:27.757Z,27.00
2022-08-28T07:01:32.790Z,27.11
2022-08-28T07:06:37.246Z,27.28
2022-08-28T07:11:39.333Z,27.23
2022-08-28T07:16:42.226Z,27.31
2022-08-28T07:21:45.809Z,27.35
2022-08-28T07:26:48.658Z,27.31
2022-08-28T07:31:54.190Z,27.43
2022-08-28T07:36:58.425Z,27.43
2022-08-28T07:42:00.603Z,27.40
2022-08-28T07:47:05.981Z,27.35
2022-08-28T07:52:09.648Z,27.18
2022-08-28T07:57:11.567Z,27.14
2022-08-28T08:02:13.818Z,27.18
2022-08-28T08:07:18.055Z,27.21
2022-08-28T08:12:20.645Z,26.97
2022-08-28T08:17:22.545Z,25.93
2022-08-28T08:22:25.523Z,25.31
2022-08-28T08:27:27.902Z,25.10
2022-08-28T08:32:30.008Z,25.36
2022-08-28T08:37:32.155Z,24.97
2022-08-28T08:42:35.491Z,26.02
2022-08-28T08:47:48.930Z,25.64
2022-08-28T08:53:15.258Z,24.97
2022-08-28T08:58:24.312Z,25.25
2022-08-28T09:03:40.415Z,24.86
2022-08-28T09:08:50.793Z,25.17
2022-08-28T09:13:59.503Z,25.28
2022-08-28T09:19:02.990Z,26.24
2022-08-28T09:24:12.162Z,26.63
2022-08-28T09:29:17.926Z,26.55
2022-08-28T09:34:25.053Z,26.75
2022-08-28T09:39:29.246Z,26.86
2022-08-28T09:44:31.820Z,26.94
2022-08-28T09:49:33.791Z,27.08
2022-08-28T09:54:41.811Z,27.06
2022-08-28T09:59:43.968Z,27.09
2022-08-28T10:05:04.287Z,27.10
2022-08-28T10:10:32.100Z,27.09
2022-08-28T10:15:47.313Z,27.19
2022-08-28T10:21:04.880Z,27.15
2022-08-28T10:26:35.035Z,27.15
2022-08-28T10:31:42.990Z,27.16
2022-08-28T10:36:57.058Z,27.18
2022-08-28T10:42:03.364Z,26.76
2022-08-28T10:47:06.684Z,25.89
2022-08-28T10:52:22.948Z,25.83
2022-08-28T10:57:39.426Z,26.66
2022-08-28T11:02:46.190Z,27.08
2022-08-28T11:07:52.846Z,27.10
2022-08-28T11:12:55.171Z,27.01
2022-08-28T11:18:21.056Z,26.84
2022-08-28T11:23:30.358Z,26.00
2022-08-28T11:28:34.945Z,26.16
2022-08-28T11:33:48.808Z,26.43
2022-08-28T11:38:53.740Z,26.35
2022-08-28T11:44:13.726Z,25.73
2022-08-28T11:49:27.234Z,25.62
2022-08-28T11:54:47.951Z,25.80
2022-08-28T11:59:59.140Z,25.63
2022-08-28T12:05:02.302Z,26.32
2022-08-28T12:10:24.786Z,26.85
2022-08-28T12:15:32.785Z,26.99
2022-08-28T12:20:53.961Z,27.02
2022-08-28T12:26:03.923Z,26.70
2022-08-28T12:31:05.999Z,27.01
2022-08-28T12:36:15.547Z,26.76
2022-08-28T12:41:18.545Z,26.48
2022-08-28T12:46:33.313Z,26.78
2022-08-28T12:51:37.763Z,26.94
2022-08-28T12:56:39.661Z,26.27
2022-08-28T13:01:41.976Z,26.72
2022-08-28T13:06:44.172Z,26.17
2022-08-28T13:11:51.919Z,26.50
2022-08-28T13:16:53.933Z,26.50
2022-08-28T13:22:02.825Z,26.31
2022-08-28T13:27:16.844Z,26.86
2022-08-28T13:32:19.105Z,27.05
2022-08-28T13:37:43.621Z,27.07
2022-08-28T13:42:47.076Z,27.14
2022-08-28T13:47:48.890Z,27.11
2022-08-28T13:52:50.845Z,27.14
2022-08-28T13:57:52.765Z,27.09
2022-08-28T14:03:13.601Z,27.09
2022-08-28T14:08:15.470Z,27.13
2022-08-28T14:13:17.761Z,27.18
2022-08-28T14:18:19.987Z,27.23
2022-08-28T14:23:23.429Z,27.26
2022-08-28T14:28:25.331Z,27.28
2022-08-28T14:33:27.312Z,27.23
2022-08-28T14:38:29.967Z,27.29
2022-08-28T14:43:32.102Z,27.23
2022-08-28T14:48:34.987Z,27.27
2022-08-28T14:53:37.663Z,27.27
2022-08-28T14:58:39.884Z,27.20
2022-08-28T15:03:42.211Z,27.29
2022-08-28T15:08:44.448Z,27.28
2022-08-28T15:13:49.051Z,27.24
2022-08-28T15:18:50.906Z,27.28
2022-08-28T15:23:55.127Z,26.75
2022-08-28T15:29:02.522Z,26.67
2022-08-28T15:34:13.122Z,26.73
2022-08-28T15:39:34.375Z,26.76
2022-08-28T15:44:36.242Z,26.77
2022-08-28T15:49:43.573Z,26.65
2022-08-28T15:54:50.875Z,26.42
2022-08-28T15:59:52.790Z,26.24
2022-08-28T16:04:54.816Z,26.16
2022-08-28T16:09:56.862Z,26.61
2022-08-28T16:14:58.898Z,26.96
2022-08-28T16:20:00.651Z,26.41
2022-08-28T16:25:02.400Z,26.05
2022-08-28T16:30:06.469Z,26.66
2022-08-28T16:35:17.883Z,26.02
2022-08-28T16:40:20.210Z,25.93
2022-08-28T16:45:22.359Z,25.94
2022-08-28T16:50:24.988Z,26.01
2022-08-28T16:55:28.382Z,25.85
2022-08-28T17:00:30.800Z,26.09
2022-08-28T17:05:32.820Z,26.31
2022-08-28T17:10:36.051Z,26.17
2022-08-28T17:15:37.923Z,26.87
2022-08-28T17:20:58.266Z,27.01
2022-08-28T17:26:00.099Z,27.08
2022-08-28T17:31:02.329Z,27.07
2022-08-28T17:36:06.801Z,27.10
2022-08-28T17:41:20.766Z,27.11
2022-08-28T17:46:22.754Z,27.09
2022-08-28T17:51:42.823Z,27.16
2022-08-28T17:56:46.563Z,27.22
2022-08-28T18:01:48.892Z,27.00
2022-08-28T18:06:52.917Z,27.13
2022-08-28T18:11:57.977Z,27.14
2022-08-28T18:17:00.024Z,27.13
2022-08-28T18:22:02.089Z,27.22
2022-08-28T18:27:05.304Z,27.14
2022-08-28T18:32:07.802Z,27.18
2022-08-28T18:37:10.018Z,27.26
2022-08-28T18:42:12.072Z,27.21
2022-08-28T18:47:14.239Z,27.26
2022-08-28T18:52:16.453Z,27.13
2022-08-28T18:57:21.946Z,26.62
2022-08-28T19:02:27.841Z,26.37
2022-08-28T19:07:30.673Z,26.48
2022-08-28T19:12:33.633Z,26.69
2022-08-28T19:17:37.947Z,26.92
2022-08-28T19:22:40.055Z,26.99
2022-08-28T19:27:42.794Z,27.00
2022-08-28T19:32:45.927Z,27.02
2022-08-28T19:37:48.026Z,27.04
2022-08-28T19:42:50.362Z,26.99
2022-08-28T19:47:52.995Z,27.05
2022-08-28T19:52:54.841Z,27.03
2022-08-28T19:57:57.497Z,27.01
2022-08-28T20:02:59.725Z,27.02
2022-08-28T20:08:01.563Z,27.04
2022-08-28T20:13:03.448Z,27.05
2022-08-28T20:18:08.332Z,27.02
2022-08-28T20:23:10.293Z,26.97
2022-08-28T20:28:13.272Z,27.00
2022-08-28T20:33:15.680Z,27.03
2022-08-28T20:38:17.539Z,26.94
2022-08-28T20:43:19.451Z,26.93
2022-08-28T20:48:21.339Z,27.04
2022-08-28T20:53:37.397Z,27.06
2022-08-28T20:58:39.888Z,27.15
2022-08-28T21:03:41.715Z,27.06
2022-08-28T21:08:43.502Z,26.94
2022-08-28T21:13:45.327Z,26.92
2022-08-28T21:19:14.008Z,26.86
2022-08-28T21:24:12.318Z,26.86
2022-08-28T21:29:15.499Z,26.93
2022-08-28T21:34:18.954Z,26.84
2022-08-28T21:39:21.139Z,26.87
2022-08-28T21:44:25.529Z,26.82
2022-08-28T21:49:27.608Z,26.87
2022-08-28T21:54:29.634Z,26.77
2022-08-28T21:59:38.052Z,26.77
2022-08-28T22:04:39.998Z,26.79
2022-08-28T22:09:42.359Z,26.83
2022-08-28T22:14:44.290Z,26.80
2022-08-28T22:19:46.661Z,26.81
2022-08-28T22:24:48.945Z,26.79
2022-08-28T22:29:51.319Z,26.77
2022-08-28T22:34:54.836Z,26.75
2022-08-28T22:39:57.651Z,26.81
2022-08-28T22:44:59.896Z,26.77
2022-08-28T22:50:04.430Z,26.76
2022-08-28T22:55:10.755Z,26.80
2022-08-28T23:00:17.710Z,26.75
2022-08-28T23:05:20.361Z,26.79
2022-08-28T23:10:36.725Z,26.72
2022-08-28T23:15:46.367Z,26.76
2022-08-28T23:20:50.614Z,26.77
2022-08-28T23:25:53.470Z,26.78
2022-08-28T23:30:55.409Z,26.74
2022-08-28T23:35:57.328Z,26.76
2022-08-28T23:40:59.287Z,26.69
2022-08-28T23:46:01.295Z,26.75
2022-08-28T23:51:09.292Z,26.72
2022-08-28T23:56:12.872Z,26.75
